Flight Track Log - Related Links

Times and Time Zones

All times are in EDT time to prevent confusion due to time zone crossing. See the MMN26 flight status page for this flight to view local times or setup timezone preferences in your user account.

Time Position Orientation Groundspeed Altitude Reporting Facility
EDT Latitude Longitude Course Direction KTS MPH feet Rate Location/Type
Wed 05:12:50 PM 40.8333 -74.0833 255° West 175 201 1,300  Level New York TRACON
Wed 05:13:50 PM 40.8167 -74.1667 255° West 215 247 2,600 2,050 Climbing New York TRACON
Wed 05:14:50 PM 40.8333 -74.2333 288° West 236 272 5,400 1,736 Climbing New York TRACON
Wed 05:15:51 PM 40.9167 -74.2333 360° North 274 315 6,100 347 Climbing New York TRACON
Wed 05:16:51 PM 40.9833 -74.2167 11° North 270 311 6,100 -50 Level New York TRACON
Wed 05:17:50 PM 41.0500 -74.1833 21° North 266 306 6,000 1,050 Descending New York TRACON
Wed 05:18:51 PM 41.1167 -74.1333 29° Northeast 271 312 8,200 2,133 Climbing New York TRACON
Wed 05:20:00 PM 41.1667 -74.0329 57° Northeast  Level Estimated
Wed 05:20:50 PM 41.1667 -73.9167 57° Northeast 335 386 12,400  Level New York TRACON
Wed 05:23:02 PM 41.2456 -73.6464 69° East 367 422 15,000 781 Climbing Boston Center
Wed 05:24:02 PM 41.2950 -73.5067 65° Northeast 374 430 14,900  Descending Boston Center
Wed 05:25:02 PM 41.3378 -73.3911 64° Northeast 379 436 15,000 50 Climbing Boston Center
Wed 05:26:02 PM 41.3761 -73.2867 64° Northeast 384 442 15,000 -50 Level Boston Center
Wed 05:27:02 PM 41.4314 -73.1322 64° Northeast 384 442 14,900 -50 Descending Boston Center
Wed 05:28:02 PM 41.4842 -72.9914 63° Northeast 384 442 14,900 50 Level Boston Center
Wed 05:29:02 PM 41.5264 -72.8728 65° Northeast 384 442 15,000 50 Climbing Boston Center
Wed 05:30:02 PM 41.5769 -72.7314 64° Northeast 384 442 15,000 -50 Level Boston Center
Wed 05:31:02 PM 41.6186 -72.6122 65° Northeast 384 442 14,900 -390 Descending Boston Center
Wed 05:31:19 PM 41.6375 -72.5622 63° Northeast 389 448 14,500 -1,250 Descending Boston Center
Wed 05:32:14 PM 41.6897 -72.4928 45° Northeast 378 435 13,400 -1,357 Descending Boston Center
Wed 05:33:14 PM 41.7878 -72.3872 39° Northeast 369 425 11,900 -1,150 Descending Boston Center
Wed 05:34:14 PM 41.8647 -72.3036 39° Northeast 369 425 11,100 -450 Descending Boston Center
Wed 05:35:14 PM 41.9417 -72.2167 40° Northeast 363 418 11,000 -450 Descending Boston Center
Wed 05:36:14 PM 42.0019 -72.1467 41° Northeast 330 380 10,200 -1,120 Descending Boston Center
Wed 05:36:29 PM 42.0228 -72.1242 39° Northeast 288 331 9,600 -2,289 Descending Boston Center
Wed 05:37:30 PM 42.0808 -72.0569 41° Northeast 280 322 7,300 -1,967 Descending Boston Center
Wed 05:38:31 PM 42.1389 -71.9894 41° Northeast 263 303 5,600 -1,190 Descending Boston Center
Wed 05:39:26 PM 42.1806 -71.9442 39° Northeast 266 306 5,000 -313 Descending Boston Center
Wed 05:40:26 PM 42.2508 -71.8650 40° Northeast 266 306 5,000  Level Boston Center
Wed 05:41:26 PM 42.3089 -71.8000 40° Northeast 266 306 5,000 -50 Level Boston Center
Wed 05:42:26 PM 42.3650 -71.7433 37° Northeast 256 295 4,900 -50 Descending Boston Center
Wed 05:43:26 PM 42.4125 -71.7033 32° Northeast 233 268 4,900 -100 Level Boston Center
Wed 05:44:26 PM 42.4708 -71.6717 22° Northeast 212 244 4,700 -450 Descending Boston Center
Wed 05:45:26 PM 42.5081 -71.6289 40° Northeast 190 219 4,000 -532 Descending Boston Center
Wed 05:45:45 PM 42.5167 -71.6000 68° East 204 235 4,000 -525 Level KA90
Wed 05:46:46 PM 42.5167 -71.5333 90° East 165 190 3,300 -667 Descending KA90
Wed 05:47:51 PM 42.4833 -71.4667 124° Southeast 161 185 2,600 -700 Descending KA90
Wed 05:48:46 PM 42.4833 -71.4167 90° East 134 154 1,900 -700 Descending KA90
Wed 05:49:51 PM 42.4833 -71.3667 90° East 115 132 1,200 -600 Descending KA90
Wed 05:50:46 PM 42.4833 -71.3333 90° East 111 128 700 -545 Descending KA90

Login

Don't have an account? Register now (free) for customized features, flight alerts, and more!